Burlington, ND (58722)

11:57 AM CDT on May 29, 2017 (GMT -0500)
Ballantyne Subdivision | | Change Station

Elev 1739 ft 48.27 °N, 101.31 °W | Updated 6 seconds ago

Overcast
Overcast
57.2 °F
Feels Like 57.2 °F
N
13.0
Wind Variable Wind from West

Today
High -- | Low -- °F
--% Chance of Precip.
Yesterday
High -- | Low -- °F
Precip. -- in
Pressure 30.02 in
Visibility 10.0 miles
Clouds Overcast 6000 ft
Dew Point 40 °F
Humidity 53%
Rainfall 0.00 in
Snow Depth Not available.
5:51 AM 9:35 PM
Waxing Crescent, 21% visible
METAR KMOT 291654Z 31020G28KT 10SM OVC060 15/04 A3001 RMK AO2 PK WND 30032/1628 SLP165 T01500039
Pressure 30.02 in
Visibility 10.0 miles
Clouds Overcast 6000 ft
Dew Point 40 °F
Humidity 53%
Rainfall 0.00 in
Snow Depth Not available.
5:51 AM 9:35 PM
Waxing Crescent, 21% visible
METAR KMOT 291654Z 31020G28KT 10SM OVC060 15/04 A3001 RMK AO2 PK WND 30032/1628 SLP165 T01500039

Get Severe Weather Alerts

Thanks for signing up!

Be on the lookout for a verification email in your inbox.

You'll start receiving the daily forecast at 6 AM.

×

10-Day Weather Forecast

Almanac

Astronomy

May. 29, 2017 Rise Set
Actual Time
Civil Twilight
Nautical Twilight
Astronomical Twilight
Moon
Length of Visible Light
Length of Day
Tomorrow will be .
, % of the Moon is Illuminated

Today's Extremes

State Highs State Lows

Community

WunderPhotos

Category 6

Welcome to Category 6. This is the collective home for Weather Underground's featured writeups by Dr. Jeff Masters (right), Bob Henson (left), Chris Burt, and other regular contributors.

Nearby

Air Quality

  Air Quality AQ Index Pollutant
Not available.

Snow Depth

Station Depth Elevation

Earthquake Activity

City Distance Mag. Time & Date
Minimum magnitude displayed is 2.5.

Coastal Water Temperatures

Place Temperature

Stations

Nearby Weather Stations

Station Location Temp. Windchill Dew Point Humidity Wind Precip. Elev Updated Type
                   

Watches & Warnings

There are currently no watches in effect.